sensor_id;sensor_type;location;lat;lon;timestamp;P1;durP1;ratioP1;P2;durP2;ratioP2
8735;SDS011;4404;49.308;12.178;2022-08-21T00:05:01;1.30;;;1.20;;
8735;SDS011;4404;49.308;12.178;2022-08-21T00:11:04;1.13;;;1.03;;
8735;SDS011;4404;49.308;12.178;2022-08-21T00:17:08;2.00;;;1.43;;
8735;SDS011;4404;49.308;12.178;2022-08-21T00:23:11;1.70;;;1.53;;
8735;SDS011;4404;49.308;12.178;2022-08-21T00:29:14;1.40;;;1.30;;
8735;SDS011;4404;49.308;12.178;2022-08-21T00:35:19;1.40;;;1.30;;
8735;SDS011;4404;49.308;12.178;2022-08-21T00:41:26;1.70;;;1.40;;
8735;SDS011;4404;49.308;12.178;2022-08-21T00:47:29;1.30;;;1.20;;
8735;SDS011;4404;49.308;12.178;2022-08-21T00:53:31;1.30;;;1.17;;
8735;SDS011;4404;49.308;12.178;2022-08-21T00:59:38;1.73;;;1.30;;
8735;SDS011;4404;49.308;12.178;2022-08-21T01:05:43;1.50;;;1.37;;
8735;SDS011;4404;49.308;12.178;2022-08-21T01:11:47;2.10;;;1.60;;
8735;SDS011;4404;49.308;12.178;2022-08-21T01:17:52;1.87;;;1.50;;
8735;SDS011;4404;49.308;12.178;2022-08-21T01:24:16;1.70;;;1.50;;
8735;SDS011;4404;49.308;12.178;2022-08-21T01:30:22;1.70;;;1.40;;
8735;SDS011;4404;49.308;12.178;2022-08-21T01:36:43;1.40;;;1.30;;
8735;SDS011;4404;49.308;12.178;2022-08-21T01:42:48;1.40;;;1.27;;
8735;SDS011;4404;49.308;12.178;2022-08-21T01:48:51;1.30;;;1.20;;
8735;SDS011;4404;49.308;12.178;2022-08-21T01:54:53;1.43;;;1.30;;
8735;SDS011;4404;49.308;12.178;2022-08-21T02:00:57;1.20;;;1.10;;
8735;SDS011;4404;49.308;12.178;2022-08-21T02:07:00;1.40;;;1.20;;
8735;SDS011;4404;49.308;12.178;2022-08-21T02:13:03;1.50;;;1.20;;
8735;SDS011;4404;49.308;12.178;2022-08-21T02:19:08;1.43;;;1.20;;
8735;SDS011;4404;49.308;12.178;2022-08-21T02:25:11;1.30;;;1.10;;
8735;SDS011;4404;49.308;12.178;2022-08-21T02:31:14;1.83;;;1.50;;
8735;SDS011;4404;49.308;12.178;2022-08-21T02:37:18;1.30;;;1.10;;
8735;SDS011;4404;49.308;12.178;2022-08-21T02:43:22;1.20;;;1.10;;
8735;SDS011;4404;49.308;12.178;2022-08-21T02:49:26;1.47;;;1.20;;
8735;SDS011;4404;49.308;12.178;2022-08-21T02:55:30;1.40;;;1.30;;
8735;SDS011;4404;49.308;12.178;2022-08-21T03:01:34;1.27;;;1.17;;
8735;SDS011;4404;49.308;12.178;2022-08-21T03:07:37;1.50;;;1.23;;
8735;SDS011;4404;49.308;12.178;2022-08-21T03:13:41;1.30;;;1.20;;
8735;SDS011;4404;49.308;12.178;2022-08-21T03:19:44;1.50;;;1.33;;
8735;SDS011;4404;49.308;12.178;2022-08-21T03:25:46;1.67;;;1.50;;
8735;SDS011;4404;49.308;12.178;2022-08-21T03:31:53;1.37;;;1.20;;
8735;SDS011;4404;49.308;12.178;2022-08-21T03:37:55;1.33;;;1.20;;
8735;SDS011;4404;49.308;12.178;2022-08-21T03:43:58;1.50;;;1.23;;
8735;SDS011;4404;49.308;12.178;2022-08-21T03:50:02;1.43;;;1.30;;
8735;SDS011;4404;49.308;12.178;2022-08-21T03:56:06;1.20;;;1.10;;
8735;SDS011;4404;49.308;12.178;2022-08-21T04:02:08;1.20;;;1.10;;
8735;SDS011;4404;49.308;12.178;2022-08-21T04:08:14;1.30;;;1.20;;
8735;SDS011;4404;49.308;12.178;2022-08-21T04:14:18;1.33;;;1.23;;
8735;SDS011;4404;49.308;12.178;2022-08-21T04:20:22;1.43;;;1.33;;
8735;SDS011;4404;49.308;12.178;2022-08-21T04:26:26;1.27;;;1.17;;
8735;SDS011;4404;49.308;12.178;2022-08-21T04:32:30;1.20;;;1.10;;
8735;SDS011;4404;49.308;12.178;2022-08-21T04:38:33;1.30;;;1.20;;
8735;SDS011;4404;49.308;12.178;2022-08-21T04:44:37;1.30;;;1.20;;
8735;SDS011;4404;49.308;12.178;2022-08-21T04:50:40;1.23;;;1.13;;
8735;SDS011;4404;49.308;12.178;2022-08-21T04:56:49;1.67;;;1.40;;
8735;SDS011;4404;49.308;12.178;2022-08-21T05:02:57;1.60;;;1.40;;
8735;SDS011;4404;49.308;12.178;2022-08-21T05:09:01;1.60;;;1.30;;
8735;SDS011;4404;49.308;12.178;2022-08-21T05:15:05;1.50;;;1.23;;
8735;SDS011;4404;49.308;12.178;2022-08-21T05:21:09;1.90;;;1.67;;
8735;SDS011;4404;49.308;12.178;2022-08-21T05:27:12;1.23;;;1.13;;
8735;SDS011;4404;49.308;12.178;2022-08-21T05:33:14;0.80;;;0.80;;
8735;SDS011;4404;49.308;12.178;2022-08-21T05:39:18;0.80;;;0.80;;
8735;SDS011;4404;49.308;12.178;2022-08-21T05:45:20;0.80;;;0.80;;
8735;SDS011;4404;49.308;12.178;2022-08-21T05:51:23;0.80;;;0.80;;
8735;SDS011;4404;49.308;12.178;2022-08-21T05:57:27;1.00;;;0.90;;
8735;SDS011;4404;49.308;12.178;2022-08-21T06:03:29;0.90;;;0.90;;
8735;SDS011;4404;49.308;12.178;2022-08-21T06:09:34;0.80;;;0.80;;
8735;SDS011;4404;49.308;12.178;2022-08-21T06:15:39;0.90;;;0.90;;
8735;SDS011;4404;49.308;12.178;2022-08-21T06:21:43;0.83;;;0.83;;
8735;SDS011;4404;49.308;12.178;2022-08-21T06:27:45;0.80;;;0.80;;
8735;SDS011;4404;49.308;12.178;2022-08-21T06:33:49;0.80;;;0.80;;
8735;SDS011;4404;49.308;12.178;2022-08-21T06:39:52;0.90;;;0.90;;
8735;SDS011;4404;49.308;12.178;2022-08-21T06:45:54;0.80;;;0.80;;
8735;SDS011;4404;49.308;12.178;2022-08-21T06:51:58;1.00;;;0.90;;
8735;SDS011;4404;49.308;12.178;2022-08-21T06:58:01;0.80;;;0.80;;
8735;SDS011;4404;49.308;12.178;2022-08-21T07:04:04;0.80;;;0.80;;
8735;SDS011;4404;49.308;12.178;2022-08-21T07:10:09;0.90;;;0.90;;
8735;SDS011;4404;49.308;12.178;2022-08-21T07:16:11;0.60;;;0.60;;
8735;SDS011;4404;49.308;12.178;2022-08-21T07:22:14;0.93;;;0.90;;
8735;SDS011;4404;49.308;12.178;2022-08-21T07:28:20;0.80;;;0.80;;
8735;SDS011;4404;49.308;12.178;2022-08-21T07:34:23;0.80;;;0.80;;
8735;SDS011;4404;49.308;12.178;2022-08-21T07:40:25;1.00;;;0.90;;
8735;SDS011;4404;49.308;12.178;2022-08-21T07:46:29;1.00;;;0.90;;
8735;SDS011;4404;49.308;12.178;2022-08-21T07:52:31;1.00;;;0.90;;
8735;SDS011;4404;49.308;12.178;2022-08-21T07:58:33;0.80;;;0.80;;
8735;SDS011;4404;49.308;12.178;2022-08-21T08:04:37;1.30;;;1.13;;
8735;SDS011;4404;49.308;12.178;2022-08-21T08:10:40;0.87;;;0.80;;
8735;SDS011;4404;49.308;12.178;2022-08-21T08:16:42;0.77;;;0.77;;
8735;SDS011;4404;49.308;12.178;2022-08-21T08:22:46;1.00;;;0.90;;
8735;SDS011;4404;49.308;12.178;2022-08-21T08:28:49;1.13;;;1.00;;
8735;SDS011;4404;49.308;12.178;2022-08-21T08:34:52;0.93;;;0.87;;
8735;SDS011;4404;49.308;12.178;2022-08-21T08:40:58;1.40;;;1.10;;
8735;SDS011;4404;49.308;12.178;2022-08-21T08:47:07;0.80;;;0.80;;
8735;SDS011;4404;49.308;12.178;2022-08-21T08:53:14;1.20;;;1.00;;
8735;SDS011;4404;49.308;12.178;2022-08-21T08:59:25;0.90;;;0.90;;
8735;SDS011;4404;49.308;12.178;2022-08-21T09:05:37;1.73;;;1.30;;
8735;SDS011;4404;49.308;12.178;2022-08-21T09:11:48;0.73;;;0.73;;
8735;SDS011;4404;49.308;12.178;2022-08-21T09:18:05;0.90;;;0.90;;
8735;SDS011;4404;49.308;12.178;2022-08-21T09:24:25;1.00;;;0.90;;
8735;SDS011;4404;49.308;12.178;2022-08-21T09:30:33;0.80;;;0.80;;
8735;SDS011;4404;49.308;12.178;2022-08-21T09:36:38;0.97;;;0.87;;
8735;SDS011;4404;49.308;12.178;2022-08-21T09:42:53;0.80;;;0.80;;
8735;SDS011;4404;49.308;12.178;2022-08-21T09:48:57;0.97;;;0.90;;
8735;SDS011;4404;49.308;12.178;2022-08-21T09:55:04;1.10;;;1.00;;
8735;SDS011;4404;49.308;12.178;2022-08-21T10:01:27;1.10;;;0.90;;
8735;SDS011;4404;49.308;12.178;2022-08-21T10:07:30;1.00;;;0.90;;
8735;SDS011;4404;49.308;12.178;2022-08-21T10:13:40;0.87;;;0.87;;
8735;SDS011;4404;49.308;12.178;2022-08-21T10:19:56;1.23;;;1.00;;
8735;SDS011;4404;49.308;12.178;2022-08-21T10:26:08;1.13;;;0.93;;
8735;SDS011;4404;49.308;12.178;2022-08-21T10:32:31;1.67;;;1.10;;
8735;SDS011;4404;49.308;12.178;2022-08-21T10:39:02;0.70;;;0.70;;
8735;SDS011;4404;49.308;12.178;2022-08-21T10:45:17;1.63;;;1.00;;
8735;SDS011;4404;49.308;12.178;2022-08-21T10:51:35;2.47;;;1.30;;
8735;SDS011;4404;49.308;12.178;2022-08-21T10:57:46;3.20;;;1.53;;
8735;SDS011;4404;49.308;12.178;2022-08-21T11:03:54;1.23;;;0.80;;
8735;SDS011;4404;49.308;12.178;2022-08-21T11:10:14;1.20;;;0.90;;
8735;SDS011;4404;49.308;12.178;2022-08-21T11:16:23;1.63;;;0.90;;
8735;SDS011;4404;49.308;12.178;2022-08-21T11:22:37;2.37;;;1.20;;
8735;SDS011;4404;49.308;12.178;2022-08-21T11:28:51;3.10;;;1.37;;
8735;SDS011;4404;49.308;12.178;2022-08-21T11:35:00;1.98;;;1.13;;
8735;SDS011;4404;49.308;12.178;2022-08-21T11:41:14;0.80;;;0.70;;
8735;SDS011;4404;49.308;12.178;2022-08-21T11:47:31;2.15;;;1.08;;
8735;SDS011;4404;49.308;12.178;2022-08-21T11:53:46;1.48;;;0.90;;
8735;SDS011;4404;49.308;12.178;2022-08-21T11:59:57;2.30;;;1.13;;
8735;SDS011;4404;49.308;12.178;2022-08-21T12:06:09;1.75;;;1.10;;
8735;SDS011;4404;49.308;12.178;2022-08-21T12:12:22;1.42;;;0.90;;
8735;SDS011;4404;49.308;12.178;2022-08-21T12:18:28;3.30;;;1.48;;
8735;SDS011;4404;49.308;12.178;2022-08-21T12:24:35;1.35;;;0.90;;
8735;SDS011;4404;49.308;12.178;2022-08-21T12:30:41;2.88;;;1.40;;
8735;SDS011;4404;49.308;12.178;2022-08-21T12:36:48;1.45;;;0.90;;
8735;SDS011;4404;49.308;12.178;2022-08-21T12:43:03;1.95;;;0.95;;
8735;SDS011;4404;49.308;12.178;2022-08-21T12:49:14;1.98;;;1.05;;
8735;SDS011;4404;49.308;12.178;2022-08-21T12:55:25;1.30;;;0.80;;
8735;SDS011;4404;49.308;12.178;2022-08-21T13:01:32;1.80;;;0.93;;
8735;SDS011;4404;49.308;12.178;2022-08-21T13:07:36;1.48;;;0.82;;
8735;SDS011;4404;49.308;12.178;2022-08-21T13:13:39;0.93;;;0.68;;
8735;SDS011;4404;49.308;12.178;2022-08-21T13:19:51;1.95;;;0.90;;
8735;SDS011;4404;49.308;12.178;2022-08-21T13:25:56;3.78;;;1.40;;
8735;SDS011;4404;49.308;12.178;2022-08-21T13:32:00;3.38;;;1.35;;
8735;SDS011;4404;49.308;12.178;2022-08-21T13:38:08;7.32;;;2.13;;
8735;SDS011;4404;49.308;12.178;2022-08-21T13:44:14;3.33;;;1.25;;
8735;SDS011;4404;49.308;12.178;2022-08-21T13:50:20;4.75;;;1.75;;
8735;SDS011;4404;49.308;12.178;2022-08-21T13:56:27;3.58;;;1.40;;
8735;SDS011;4404;49.308;12.178;2022-08-21T14:02:37;3.00;;;1.25;;
8735;SDS011;4404;49.308;12.178;2022-08-21T14:08:41;2.97;;;1.25;;
8735;SDS011;4404;49.308;12.178;2022-08-21T14:14:52;3.15;;;1.30;;
8735;SDS011;4404;49.308;12.178;2022-08-21T14:21:06;3.20;;;1.35;;
8735;SDS011;4404;49.308;12.178;2022-08-21T14:27:10;2.05;;;0.90;;
8735;SDS011;4404;49.308;12.178;2022-08-21T14:33:16;1.63;;;0.88;;
8735;SDS011;4404;49.308;12.178;2022-08-21T14:39:24;1.80;;;0.90;;
8735;SDS011;4404;49.308;12.178;2022-08-21T14:45:28;3.35;;;1.20;;
8735;SDS011;4404;49.308;12.178;2022-08-21T14:51:33;2.47;;;1.00;;
8735;SDS011;4404;49.308;12.178;2022-08-21T14:57:36;1.10;;;0.90;;
8735;SDS011;4404;49.308;12.178;2022-08-21T15:03:39;1.70;;;1.05;;
8735;SDS011;4404;49.308;12.178;2022-08-21T15:09:43;1.10;;;0.80;;
8735;SDS011;4404;49.308;12.178;2022-08-21T15:15:45;0.68;;;0.68;;
8735;SDS011;4404;49.308;12.178;2022-08-21T15:21:51;0.60;;;0.60;;
8735;SDS011;4404;49.308;12.178;2022-08-21T15:27:55;0.70;;;0.70;;
8735;SDS011;4404;49.308;12.178;2022-08-21T15:33:57;1.00;;;0.80;;
8735;SDS011;4404;49.308;12.178;2022-08-21T15:40:00;0.70;;;0.70;;
8735;SDS011;4404;49.308;12.178;2022-08-21T15:46:04;0.90;;;0.80;;
8735;SDS011;4404;49.308;12.178;2022-08-21T15:52:07;1.35;;;0.90;;
8735;SDS011;4404;49.308;12.178;2022-08-21T15:58:12;1.30;;;0.90;;
8735;SDS011;4404;49.308;12.178;2022-08-21T16:04:20;0.65;;;0.65;;
8735;SDS011;4404;49.308;12.178;2022-08-21T16:10:25;0.98;;;0.75;;
8735;SDS011;4404;49.308;12.178;2022-08-21T16:16:28;0.70;;;0.70;;
8735;SDS011;4404;49.308;12.178;2022-08-21T16:22:33;1.13;;;1.02;;
8735;SDS011;4404;49.308;12.178;2022-08-21T16:28:36;2.10;;;1.30;;
8735;SDS011;4404;49.308;12.178;2022-08-21T16:34:42;1.60;;;1.17;;
8735;SDS011;4404;49.308;12.178;2022-08-21T16:40:49;1.70;;;1.30;;
8735;SDS011;4404;49.308;12.178;2022-08-21T16:46:52;1.50;;;1.20;;
8735;SDS011;4404;49.308;12.178;2022-08-21T16:52:54;1.70;;;1.30;;
8735;SDS011;4404;49.308;12.178;2022-08-21T16:58:58;1.30;;;1.10;;
8735;SDS011;4404;49.308;12.178;2022-08-21T17:05:01;1.50;;;1.27;;
8735;SDS011;4404;49.308;12.178;2022-08-21T17:11:04;1.40;;;1.20;;
8735;SDS011;4404;49.308;12.178;2022-08-21T17:17:10;1.33;;;1.15;;
8735;SDS011;4404;49.308;12.178;2022-08-21T17:23:13;1.25;;;1.10;;
8735;SDS011;4404;49.308;12.178;2022-08-21T17:29:15;1.48;;;1.30;;
8735;SDS011;4404;49.308;12.178;2022-08-21T17:35:26;1.50;;;1.15;;
8735;SDS011;4404;49.308;12.178;2022-08-21T17:41:29;1.55;;;1.30;;
8735;SDS011;4404;49.308;12.178;2022-08-21T17:47:31;1.55;;;1.27;;
8735;SDS011;4404;49.308;12.178;2022-08-21T17:53:35;1.40;;;1.20;;
8735;SDS011;4404;49.308;12.178;2022-08-21T17:59:37;1.52;;;1.27;;
8735;SDS011;4404;49.308;12.178;2022-08-21T18:05:40;1.70;;;1.30;;
8735;SDS011;4404;49.308;12.178;2022-08-21T18:11:44;1.60;;;1.30;;
8735;SDS011;4404;49.308;12.178;2022-08-21T18:17:47;2.40;;;1.50;;
8735;SDS011;4404;49.308;12.178;2022-08-21T18:23:54;1.60;;;1.20;;
8735;SDS011;4404;49.308;12.178;2022-08-21T18:30:12;1.20;;;1.08;;
8735;SDS011;4404;49.308;12.178;2022-08-21T18:36:17;1.23;;;1.13;;
8735;SDS011;4404;49.308;12.178;2022-08-21T18:42:19;1.40;;;1.20;;
8735;SDS011;4404;49.308;12.178;2022-08-21T18:48:25;2.67;;;1.80;;
8735;SDS011;4404;49.308;12.178;2022-08-21T18:54:31;1.40;;;1.27;;
8735;SDS011;4404;49.308;12.178;2022-08-21T19:00:34;1.77;;;1.40;;
8735;SDS011;4404;49.308;12.178;2022-08-21T19:06:46;2.00;;;1.42;;
8735;SDS011;4404;49.308;12.178;2022-08-21T19:12:48;1.33;;;1.20;;
8735;SDS011;4404;49.308;12.178;2022-08-21T19:18:51;1.30;;;1.20;;
8735;SDS011;4404;49.308;12.178;2022-08-21T19:24:54;1.53;;;1.20;;
8735;SDS011;4404;49.308;12.178;2022-08-21T19:30:58;1.43;;;1.30;;
8735;SDS011;4404;49.308;12.178;2022-08-21T19:37:08;1.93;;;1.50;;
8735;SDS011;4404;49.308;12.178;2022-08-21T19:43:16;1.57;;;1.33;;
8735;SDS011;4404;49.308;12.178;2022-08-21T19:49:20;1.83;;;1.33;;
8735;SDS011;4404;49.308;12.178;2022-08-21T19:55:25;1.90;;;1.40;;
8735;SDS011;4404;49.308;12.178;2022-08-21T20:01:29;2.00;;;1.43;;
8735;SDS011;4404;49.308;12.178;2022-08-21T20:07:32;1.60;;;1.40;;
8735;SDS011;4404;49.308;12.178;2022-08-21T20:13:34;1.80;;;1.30;;
8735;SDS011;4404;49.308;12.178;2022-08-21T20:19:38;1.50;;;1.17;;
8735;SDS011;4404;49.308;12.178;2022-08-21T20:25:42;1.90;;;1.40;;
8735;SDS011;4404;49.308;12.178;2022-08-21T20:31:46;1.90;;;1.50;;
8735;SDS011;4404;49.308;12.178;2022-08-21T20:37:49;2.27;;;1.60;;
8735;SDS011;4404;49.308;12.178;2022-08-21T20:43:52;1.80;;;1.30;;
8735;SDS011;4404;49.308;12.178;2022-08-21T20:49:57;2.30;;;1.50;;
8735;SDS011;4404;49.308;12.178;2022-08-21T20:56:07;1.83;;;1.27;;
8735;SDS011;4404;49.308;12.178;2022-08-21T21:02:21;1.83;;;1.40;;
8735;SDS011;4404;49.308;12.178;2022-08-21T21:08:40;2.70;;;1.67;;
8735;SDS011;4404;49.308;12.178;2022-08-21T21:14:50;2.50;;;1.53;;
8735;SDS011;4404;49.308;12.178;2022-08-21T21:20:57;2.30;;;1.50;;
8735;SDS011;4404;49.308;12.178;2022-08-21T21:27:08;1.57;;;1.20;;
8735;SDS011;4404;49.308;12.178;2022-08-21T21:33:19;2.20;;;1.70;;
8735;SDS011;4404;49.308;12.178;2022-08-21T21:39:22;2.20;;;1.50;;
8735;SDS011;4404;49.308;12.178;2022-08-21T21:45:31;1.90;;;1.37;;
8735;SDS011;4404;49.308;12.178;2022-08-21T21:51:53;2.57;;;1.60;;
8735;SDS011;4404;49.308;12.178;2022-08-21T21:58:26;2.23;;;1.60;;
8735;SDS011;4404;49.308;12.178;2022-08-21T22:04:54;1.97;;;1.40;;
8735;SDS011;4404;49.308;12.178;2022-08-21T22:11:10;2.37;;;1.50;;
8735;SDS011;4404;49.308;12.178;2022-08-21T22:17:29;1.93;;;1.47;;
8735;SDS011;4404;49.308;12.178;2022-08-21T22:23:39;2.20;;;1.50;;
8735;SDS011;4404;49.308;12.178;2022-08-21T22:29:47;3.10;;;1.57;;
8735;SDS011;4404;49.308;12.178;2022-08-21T22:35:54;4.93;;;2.03;;
8735;SDS011;4404;49.308;12.178;2022-08-21T22:42:03;2.80;;;1.57;;
8735;SDS011;4404;49.308;12.178;2022-08-21T22:48:10;3.20;;;1.80;;
8735;SDS011;4404;49.308;12.178;2022-08-21T22:54:21;3.33;;;1.70;;
8735;SDS011;4404;49.308;12.178;2022-08-21T23:00:35;2.37;;;1.57;;
8735;SDS011;4404;49.308;12.178;2022-08-21T23:06:48;2.27;;;1.50;;
8735;SDS011;4404;49.308;12.178;2022-08-21T23:12:57;2.00;;;1.40;;
8735;SDS011;4404;49.308;12.178;2022-08-21T23:19:06;2.20;;;1.47;;
8735;SDS011;4404;49.308;12.178;2022-08-21T23:32:08;3.03;;;1.67;;
8735;SDS011;4404;49.308;12.178;2022-08-21T23:38:31;2.50;;;1.60;;
8735;SDS011;4404;49.308;12.178;2022-08-21T23:44:50;1.60;;;1.30;;
8735;SDS011;4404;49.308;12.178;2022-08-21T23:51:02;2.43;;;1.60;;
8735;SDS011;4404;49.308;12.178;2022-08-21T23:57:14;2.23;;;1.50;;
